Time;durP1;ratioP1;P1;durP2;ratioP2;P2;SDS_P1;SDS_P2;PMS_P1;PMS_P2;Temp;Humidity;BMP_temperature;BMP_pressure;BME280_temperature;BME280_humidity;BME280_pressure;Samples;Min_cycle;Max_cycle;Signal;HPM_P1;HPM_P2
2021/12/20 00:01:38;;;;;;;;;;;;;;;6.07;93.06;101981.00;4913582;27;20163;-79
2021/12/20 00:04:03;;;;;;;;;;;;;;;6.13;93.17;101976.25;4941854;27;20503;-80
2021/12/20 00:06:28;;;;;;;;;;;;;;;6.12;93.04;101973.72;4941450;27;20008;-80
2021/12/20 00:08:54;;;;;;;;;;;;;;;6.16;93.10;101977.88;4958343;27;19919;-80
2021/12/20 00:11:19;;;;;;;;;;;;;;;6.20;92.68;101976.81;4939839;27;19907;-80
2021/12/20 00:13:44;;;;;;;;;;;;;;;6.16;93.25;101968.25;4930790;28;19919;-80
2021/12/20 00:16:09;;;;;;;;;;;;;;;6.16;93.30;101965.63;4926839;28;19908;-79
2021/12/20 00:18:35;;;;;;;;;;;;;;;6.12;92.84;101965.81;4925025;27;20120;-79
2021/12/20 00:21:00;;;;;;;;;;;;;;;6.11;93.21;101967.63;4926291;27;20336;-78
2021/12/20 00:23:26;;;;;;;;;;;;;;;6.05;93.23;101964.44;4923256;27;20580;-79
2021/12/20 00:25:51;;;;;;;;;;;;;;;6.00;93.79;101969.94;4943932;27;19948;-79
2021/12/20 00:28:17;;;;;;;;;;;;;;;6.03;93.75;101974.19;4957123;27;19900;-79
2021/12/20 00:30:42;;;;;;;;;;;;;;;6.00;93.94;101970.78;4935443;27;20385;-81
2021/12/20 00:33:07;;;;;;;;;;;;;;;5.98;93.88;101966.53;4936294;27;20191;-80
2021/12/20 00:35:32;;;;;;;;;;;;;;;6.05;93.99;101967.06;4935438;27;20065;-78
2021/12/20 00:40:42;;;;;;;;;;;;;;;6.05;93.88;101962.69;4948441;27;20320;-78
2021/12/20 00:43:07;;;;;;;;;;;;;;;6.06;93.93;101953.84;4914296;27;20394;-80
2021/12/20 00:45:33;;;;;;;;;;;;;;;6.11;93.63;101951.84;4935395;27;19904;-80
2021/12/20 00:47:59;;;;;;;;;;;;;;;6.11;93.13;101951.00;4924000;28;19977;-80
2021/12/20 00:50:24;;;;;;;;;;;;;;;6.12;93.47;101948.28;4915291;28;19908;-80
2021/12/20 00:52:49;;;;;;;;;;;;;;;6.07;93.02;101955.56;4912025;28;19992;-80
2021/12/20 00:55:16;;;;;;;;;;;;;;;6.08;93.01;101953.75;4914993;28;20412;-79
2021/12/20 00:57:43;;;;;;;;;;;;;;;6.14;93.22;101962.19;4910135;28;20008;-79
2021/12/20 01:00:08;;;;;;;;;;;;;;;6.06;92.87;101956.47;4893375;28;20246;-79
2021/12/20 01:02:33;;;;;;;;;;;;;;;5.97;93.32;101949.91;4895618;28;20204;-78
2021/12/20 01:04:59;;;;;;;;;;;;;;;6.02;93.38;101952.28;4907278;28;20037;-78
2021/12/20 01:07:24;;;;;;;;;;;;;;;5.96;93.23;101945.53;4905055;28;20419;-78
2021/12/20 01:09:49;;;;;;;;;;;;;;;6.03;93.75;101951.38;4901870;28;20389;-78
2021/12/20 01:12:18;;;;;;;;;;;;;;;6.01;93.36;101955.88;4903648;28;20005;-78
2021/12/20 01:14:44;;;;;;;;;;;;;;;5.97;93.04;101946.41;4912657;28;20887;-79
2021/12/20 01:17:09;;;;;;;;;;;;;;;5.98;92.87;101946.38;4887004;28;19907;-78
2021/12/20 01:19:35;;;;;;;;;;;;;;;6.05;93.10;101954.78;4908151;28;19911;-78
2021/12/20 01:22:00;;;;;;;;;;;;;;;6.04;93.12;101952.25;4891579;28;19926;-78
2021/12/20 01:24:25;;;;;;;;;;;;;;;6.17;92.63;101963.81;4910126;28;19949;-79
2021/12/20 01:26:51;;;;;;;;;;;;;;;6.09;92.48;101956.34;4894560;28;20379;-79
2021/12/20 01:29:16;;;;;;;;;;;;;;;5.99;92.75;101952.47;4906532;28;20416;-81
2021/12/20 01:31:41;;;;;;;;;;;;;;;5.98;93.00;101953.41;4905021;28;19927;-79
2021/12/20 01:34:06;;;;;;;;;;;;;;;5.96;93.25;101963.09;4888145;28;20369;-79
2021/12/20 01:36:32;;;;;;;;;;;;;;;5.96;93.77;101952.59;4909630;28;19969;-79
2021/12/20 01:38:57;;;;;;;;;;;;;;;5.96;93.54;101963.09;4922599;28;19918;-79
2021/12/20 01:41:22;;;;;;;;;;;;;;;6.07;93.37;101962.59;4944011;27;19968;-79
2021/12/20 01:43:47;;;;;;;;;;;;;;;5.99;92.83;101966.47;4907607;28;19912;-79
2021/12/20 01:46:13;;;;;;;;;;;;;;;6.03;92.91;101953.16;4921208;28;20594;-79
2021/12/20 01:48:40;;;;;;;;;;;;;;;5.96;93.20;101947.31;4916230;28;20537;-78
2021/12/20 01:53:34;;;;;;;;;;;;;;;5.98;93.02;101956.03;4926282;28;20652;-79
2021/12/20 01:55:59;;;;;;;;;;;;;;;5.90;92.62;101963.41;4920589;28;19904;-79
2021/12/20 01:58:25;;;;;;;;;;;;;;;5.91;92.84;101954.59;4920499;28;19910;-79
2021/12/20 02:01:01;;;;;;;;;;;;;;;5.98;92.83;101954.25;4922462;28;19904;-79
2021/12/20 02:03:26;;;;;;;;;;;;;;;5.98;92.46;101940.28;4904610;28;20728;-78
2021/12/20 02:05:56;;;;;;;;;;;;;;;5.95;92.34;101948.25;4923349;27;19952;-79
2021/12/20 02:08:24;;;;;;;;;;;;;;;6.01;92.53;101942.75;4906151;28;19926;-79
2021/12/20 02:10:50;;;;;;;;;;;;;;;6.00;92.05;101956.78;4902094;28;19965;-79
2021/12/20 02:13:15;;;;;;;;;;;;;;;5.93;91.54;101947.50;4899001;28;20087;-79
2021/12/20 02:15:41;;;;;;;;;;;;;;;5.88;91.85;101954.75;4897825;28;19908;-79
2021/12/20 02:18:06;;;;;;;;;;;;;;;5.87;92.05;101959.16;4886299;28;20719;-79
2021/12/20 02:20:32;;;;;;;;;;;;;;;5.84;91.83;101954.91;4885311;28;19965;-79
2021/12/20 02:22:57;;;;;;;;;;;;;;;5.90;91.57;101959.00;4870188;28;20005;-79
2021/12/20 02:25:23;;;;;;;;;;;;;;;5.91;91.94;101955.44;4889662;28;19912;-79
2021/12/20 02:27:48;;;;;;;;;;;;;;;5.88;91.37;101960.88;4906959;28;20213;-79
2021/12/20 02:30:37;;;;;;;;;;;;;;;5.84;91.47;101954.06;4908116;28;20726;-79
2021/12/20 02:38:27;;;;;;;;;;;;;;;5.80;91.92;101944.63;4914263;28;19968;-78
2021/12/20 02:41:00;;;;;;;;;;;;;;;5.77;91.70;101948.25;4900970;28;20514;-78
2021/12/20 02:43:28;;;;;;;;;;;;;;;5.83;91.22;101952.34;4925824;28;20648;-78
2021/12/20 02:45:57;;;;;;;;;;;;;;;5.87;91.48;101951.28;4920754;28;19912;-79
2021/12/20 02:48:22;;;;;;;;;;;;;;;5.89;91.32;101940.69;4930027;28;19976;-79
2021/12/20 02:50:48;;;;;;;;;;;;;;;5.84;91.76;101943.56;4948840;27;20217;-78
2021/12/20 02:53:13;;;;;;;;;;;;;;;5.76;91.55;101940.44;4947281;28;19953;-78
2021/12/20 02:55:38;;;;;;;;;;;;;;;5.92;91.27;101937.91;4951682;27;20221;-78
2021/12/20 02:58:03;;;;;;;;;;;;;;;5.87;90.68;101947.81;4950906;27;19914;-79
2021/12/20 03:00:29;;;;;;;;;;;;;;;5.96;90.72;101952.59;4937527;28;19908;-78
2021/12/20 03:02:54;;;;;;;;;;;;;;;5.87;90.43;101958.31;4919517;28;19915;-79
2021/12/20 03:05:19;;;;;;;;;;;;;;;5.80;90.36;101942.84;4951853;28;19904;-78
2021/12/20 03:07:50;;;;;;;;;;;;;;;5.82;90.07;101950.63;4966520;27;19919;-78
2021/12/20 03:10:15;;;;;;;;;;;;;;;5.80;89.55;101949.88;4932484;27;20361;-78
2021/12/20 03:12:41;;;;;;;;;;;;;;;5.80;89.73;101950.72;4970632;27;20024;-78
2021/12/20 03:15:15;;;;;;;;;;;;;;;5.82;89.34;101946.25;4933657;27;20044;-79
2021/12/20 03:17:40;;;;;;;;;;;;;;;5.83;89.17;101950.56;4932316;27;19915;-79
2021/12/20 03:20:06;;;;;;;;;;;;;;;5.75;88.50;101947.47;4976200;27;19915;-79
2021/12/20 03:22:31;;;;;;;;;;;;;;;5.71;88.16;101945.94;4949993;27;19914;-78
2021/12/20 03:24:56;;;;;;;;;;;;;;;5.74;87.57;101955.41;4951319;27;20252;-78
2021/12/20 03:27:22;;;;;;;;;;;;;;;5.76;85.47;101954.41;4947055;27;20601;-78
2021/12/20 03:29:47;;;;;;;;;;;;;;;5.78;83.28;101954.34;4948936;27;20809;-78
2021/12/20 03:32:12;;;;;;;;;;;;;;;5.71;80.35;101953.81;4939384;27;20156;-78
2021/12/20 03:34:37;;;;;;;;;;;;;;;5.70;79.25;101961.75;4911480;28;19908;-78
2021/12/20 03:37:03;;;;;;;;;;;;;;;5.73;80.22;101957.22;4914999;28;19973;-78
2021/12/20 03:39:28;;;;;;;;;;;;;;;5.67;80.08;101958.34;4922322;28;20002;-78
2021/12/20 03:41:53;;;;;;;;;;;;;;;5.70;79.99;101959.13;4912749;28;19984;-78
2021/12/20 03:44:19;;;;;;;;;;;;;;;5.76;78.89;101956.22;4925404;28;20354;-78
2021/12/20 03:46:44;;;;;;;;;;;;;;;5.59;80.21;101962.28;4922832;28;20248;-78
2021/12/20 03:49:09;;;;;;;;;;;;;;;5.46;80.63;101952.38;4954776;27;20298;-79
2021/12/20 03:51:35;;;;;;;;;;;;;;;5.42;81.45;101952.59;4942768;27;19907;-79
2021/12/20 03:54:00;;;;;;;;;;;;;;;5.53;82.94;101947.69;4947038;27;19916;-79
2021/12/20 03:56:26;;;;;;;;;;;;;;;5.40;83.47;101944.81;4924464;27;19908;-78
2021/12/20 03:58:51;;;;;;;;;;;;;;;5.39;83.52;101947.50;4958357;27;20124;-78
2021/12/20 04:01:16;;;;;;;;;;;;;;;5.33;83.91;101951.28;4936881;27;19911;-78
2021/12/20 04:03:41;;;;;;;;;;;;;;;5.23;83.80;101957.84;4950252;27;20374;-78
2021/12/20 04:06:08;;;;;;;;;;;;;;;5.28;84.61;101961.13;4917032;28;20157;-78
2021/12/20 04:08:33;;;;;;;;;;;;;;;5.28;85.32;101955.88;4922028;28;19915;-78
2021/12/20 04:10:59;;;;;;;;;;;;;;;5.11;86.53;101952.25;4920498;28;20347;-80
2021/12/20 04:13:24;;;;;;;;;;;;;;;5.19;86.39;101945.78;4921293;28;20486;-81
2021/12/20 04:15:53;;;;;;;;;;;;;;;5.09;86.49;101954.13;4906323;28;20314;-77
2021/12/20 04:18:18;;;;;;;;;;;;;;;5.07;87.30;101957.72;4937827;27;19915;-79
2021/12/20 04:20:43;;;;;;;;;;;;;;;5.11;87.30;101957.50;4933310;28;20417;-79
2021/12/20 04:23:09;;;;;;;;;;;;;;;5.10;87.35;101953.16;4918241;28;20382;-78
2021/12/20 04:25:34;;;;;;;;;;;;;;;5.06;87.43;101959.50;4935413;27;20450;-78
2021/12/20 04:27:59;;;;;;;;;;;;;;;5.06;87.27;101961.25;4916227;28;19915;-79
2021/12/20 04:30:28;;;;;;;;;;;;;;;5.02;88.07;101963.19;4935250;27;19912;-78
2021/12/20 04:32:53;;;;;;;;;;;;;;;5.07;87.55;101961.19;4950172;27;20528;-79
2021/12/20 04:35:19;;;;;;;;;;;;;;;5.05;87.74;101965.66;4934850;27;20970;-78
2021/12/20 04:37:46;;;;;;;;;;;;;;;5.05;88.17;101964.81;4934533;27;20338;-78
2021/12/20 04:40:17;;;;;;;;;;;;;;;5.01;87.88;101964.09;4934954;27;19919;-78
2021/12/20 04:42:42;;;;;;;;;;;;;;;5.03;88.67;101967.50;4932093;28;19904;-78
2021/12/20 04:45:08;;;;;;;;;;;;;;;4.95;88.94;101964.38;4937968;27;20663;-78
2021/12/20 04:47:33;;;;;;;;;;;;;;;4.91;89.56;101965.47;4934165;27;20673;-78
2021/12/20 04:49:59;;;;;;;;;;;;;;;4.95;89.57;101961.75;4946097;27;20330;-79
2021/12/20 04:52:24;;;;;;;;;;;;;;;5.01;89.67;101963.28;4910784;28;20580;-78
2021/12/20 04:54:50;;;;;;;;;;;;;;;5.10;89.63;101961.03;4923451;27;20323;-78
2021/12/20 04:57:15;;;;;;;;;;;;;;;5.18;89.62;101957.25;4932563;27;20172;-78
2021/12/20 04:59:40;;;;;;;;;;;;;;;5.09;89.72;101953.25;4932751;27;20401;-78
2021/12/20 05:02:05;;;;;;;;;;;;;;;5.02;89.82;101955.31;4894644;28;20385;-78
2021/12/20 05:04:31;;;;;;;;;;;;;;;5.03;90.00;101967.50;4907082;28;20118;-78
2021/12/20 05:06:56;;;;;;;;;;;;;;;4.99;89.19;101963.31;4903717;28;20392;-78
2021/12/20 05:09:25;;;;;;;;;;;;;;;5.01;89.27;101974.59;4885587;28;19926;-79
2021/12/20 05:11:58;;;;;;;;;;;;;;;4.96;89.58;101973.94;4930633;28;20331;-79
2021/12/20 05:14:23;;;;;;;;;;;;;;;4.92;89.46;101967.13;4910242;28;20229;-79
2021/12/20 05:16:48;;;;;;;;;;;;;;;4.92;90.38;101965.38;4885863;28;19965;-78
2021/12/20 05:19:13;;;;;;;;;;;;;;;4.94;90.33;101962.69;4894591;28;19945;-79
2021/12/20 05:21:39;;;;;;;;;;;;;;;4.94;89.84;101954.81;4945752;27;20327;-79
2021/12/20 05:24:04;;;;;;;;;;;;;;;4.92;90.12;101957.53;4950660;27;20392;-78
2021/12/20 05:26:29;;;;;;;;;;;;;;;5.00;90.20;101967.66;4932310;27;20433;-79
2021/12/20 05:28:55;;;;;;;;;;;;;;;4.95;90.51;101961.75;4933204;27;20772;-79
2021/12/20 05:31:20;;;;;;;;;;;;;;;4.97;90.65;101963.38;4932177;27;20376;-81
2021/12/20 05:33:46;;;;;;;;;;;;;;;5.06;90.45;101967.38;4939391;27;19922;-80
2021/12/20 05:36:11;;;;;;;;;;;;;;;4.99;90.26;101979.94;4950951;27;19908;-79
2021/12/20 05:38:36;;;;;;;;;;;;;;;4.94;90.81;101974.03;4940004;28;19923;-80
2021/12/20 05:41:01;;;;;;;;;;;;;;;4.92;91.17;101973.25;4918866;28;20420;-77
2021/12/20 05:43:27;;;;;;;;;;;;;;;4.93;90.61;101966.22;4907673;28;20353;-78
2021/12/20 05:45:52;;;;;;;;;;;;;;;4.91;90.82;101968.91;4927208;28;20521;-78
2021/12/20 05:48:17;;;;;;;;;;;;;;;4.94;90.49;101973.19;4901113;28;20044;-77
2021/12/20 05:50:43;;;;;;;;;;;;;;;4.94;90.25;101974.03;4889419;28;20342;-79
2021/12/20 05:53:08;;;;;;;;;;;;;;;4.91;90.68;101976.78;4894334;28;20225;-77
2021/12/20 05:55:33;;;;;;;;;;;;;;;4.93;90.25;101976.72;4912366;28;20009;-78
2021/12/20 05:57:58;;;;;;;;;;;;;;;4.97;89.92;101979.13;4879737;28;20376;-78
2021/12/20 06:00:24;;;;;;;;;;;;;;;4.89;89.90;101980.41;4889719;28;19913;-78
2021/12/20 06:02:49;;;;;;;;;;;;;;;4.89;90.37;101975.16;4866057;28;19913;-77
2021/12/20 06:05:15;;;;;;;;;;;;;;;4.88;90.38;101983.94;4875035;28;19965;-78
2021/12/20 06:07:42;;;;;;;;;;;;;;;4.84;90.26;101987.63;4904757;28;20029;-77
2021/12/20 06:10:08;;;;;;;;;;;;;;;4.79;90.26;101979.97;4892286;28;20017;-78
2021/12/20 06:12:33;;;;;;;;;;;;;;;4.72;90.81;101982.00;4884428;28;20334;-76
2021/12/20 06:14:58;;;;;;;;;;;;;;;4.76;90.34;101995.84;4903068;28;19969;-77
2021/12/20 06:17:24;;;;;;;;;;;;;;;4.80;88.79;101993.00;4905916;28;20017;-77
2021/12/20 06:19:49;;;;;;;;;;;;;;;4.90;88.30;101992.59;4919261;28;20004;-76
2021/12/20 06:22:14;;;;;;;;;;;;;;;4.86;86.93;101996.28;4908114;28;20020;-78
2021/12/20 06:24:39;;;;;;;;;;;;;;;4.89;85.40;101996.97;4896240;28;20218;-77
2021/12/20 06:27:05;;;;;;;;;;;;;;;5.01;83.13;101995.59;4892684;28;20258;-78
2021/12/20 06:29:30;;;;;;;;;;;;;;;4.93;82.33;101992.47;4903517;28;20175;-76
2021/12/20 06:31:55;;;;;;;;;;;;;;;5.11;82.29;101996.03;4915838;28;20576;-78
2021/12/20 06:34:20;;;;;;;;;;;;;;;5.03;82.61;101998.13;4949664;28;20162;-78
2021/12/20 06:36:46;;;;;;;;;;;;;;;4.99;84.54;101993.03;4924414;27;19908;-78
2021/12/20 06:39:11;;;;;;;;;;;;;;;5.08;85.03;101994.38;4930746;28;20387;-78
2021/12/20 06:41:36;;;;;;;;;;;;;;;5.07;84.45;102003.16;4932203;28;20358;-80
2021/12/20 06:44:02;;;;;;;;;;;;;;;4.98;83.71;102003.59;4939203;28;20785;-80
2021/12/20 06:46:27;;;;;;;;;;;;;;;5.00;83.22;102012.25;4919290;28;20275;-80
2021/12/20 06:48:53;;;;;;;;;;;;;;;4.90;84.42;102010.97;4924264;28;20036;-80
2021/12/20 06:51:18;;;;;;;;;;;;;;;4.89;84.62;102006.63;4934506;28;20483;-79
2021/12/20 06:53:43;;;;;;;;;;;;;;;4.84;84.75;102011.22;4947299;27;19944;-80
2021/12/20 06:56:09;;;;;;;;;;;;;;;4.82;84.76;102014.78;4946220;27;20236;-79
2021/12/20 06:58:34;;;;;;;;;;;;;;;4.81;85.30;102017.47;4922208;28;19927;-79
2021/12/20 07:00:59;;;;;;;;;;;;;;;4.66;85.55;102016.38;4920889;28;19904;-77
2021/12/20 07:03:24;;;;;;;;;;;;;;;4.60;85.90;102016.66;4917029;28;19912;-77
2021/12/20 07:05:49;;;;;;;;;;;;;;;4.50;86.14;102013.56;4943016;28;20017;-80
2021/12/20 07:08:15;;;;;;;;;;;;;;;4.39;85.82;102013.19;4919965;28;20104;-79
2021/12/20 07:10:40;;;;;;;;;;;;;;;4.36;86.45;102018.53;4913763;28;19919;-77
2021/12/20 07:13:06;;;;;;;;;;;;;;;4.26;86.31;102023.31;4915367;28;19908;-80
2021/12/20 07:15:32;;;;;;;;;;;;;;;4.19;86.30;102021.84;4905904;28;19905;-77
2021/12/20 07:17:57;;;;;;;;;;;;;;;4.06;86.55;102024.13;4929565;28;20762;-77
2021/12/20 07:20:22;;;;;;;;;;;;;;;4.01;86.93;102021.72;4925598;28;19915;-76
2021/12/20 07:22:47;;;;;;;;;;;;;;;3.99;86.07;102026.16;4927020;28;20353;-77
2021/12/20 07:25:13;;;;;;;;;;;;;;;3.98;85.87;102026.19;4907128;28;19912;-77
2021/12/20 07:27:39;;;;;;;;;;;;;;;3.95;86.16;102024.59;4927461;28;20509;-78
2021/12/20 07:30:04;;;;;;;;;;;;;;;3.87;86.01;102029.28;4920087;27;19919;-78
2021/12/20 07:32:30;;;;;;;;;;;;;;;3.83;86.16;102030.31;4946023;27;20405;-78
2021/12/20 07:34:55;;;;;;;;;;;;;;;3.75;86.49;102044.56;4968119;27;19948;-78
2021/12/20 07:37:21;;;;;;;;;;;;;;;3.74;87.07;102042.84;4943568;27;19904;-77
2021/12/20 07:39:47;;;;;;;;;;;;;;;3.65;87.03;102044.97;4922317;27;20359;-80
2021/12/20 07:42:12;;;;;;;;;;;;;;;3.53;87.24;102049.78;4956894;27;19908;-80
2021/12/20 07:44:37;;;;;;;;;;;;;;;3.52;87.17;102042.81;4931259;28;20363;-77
2021/12/20 07:47:03;;;;;;;;;;;;;;;3.35;87.38;102051.31;4925110;27;20059;-78
2021/12/20 07:49:28;;;;;;;;;;;;;;;3.37;87.50;102053.88;4948184;28;20441;-78
2021/12/20 07:51:53;;;;;;;;;;;;;;;3.32;87.30;102051.44;4931446;28;19903;-80
2021/12/20 07:54:19;;;;;;;;;;;;;;;3.29;86.83;102048.94;4943223;28;19987;-78
2021/12/20 07:56:44;;;;;;;;;;;;;;;3.39;86.90;102049.44;4946716;27;20735;-80
2021/12/20 07:59:10;;;;;;;;;;;;;;;3.31;86.51;102047.09;4944288;27;20029;-83
2021/12/20 08:01:35;;;;;;;;;;;;;;;3.39;86.38;102041.59;4945301;28;19945;-80
2021/12/20 08:04:01;;;;;;;;;;;;;;;3.26;86.28;102044.66;4935956;28;19922;-83
2021/12/20 08:06:26;;;;;;;;;;;;;;;3.25;86.09;102053.41;4931978;28;19975;-81
2021/12/20 08:08:51;;;;;;;;;;;;;;;3.19;86.57;102050.19;4930687;27;19969;-80
2021/12/20 08:11:17;;;;;;;;;;;;;;;3.20;86.40;102046.66;4911720;28;20504;-82
2021/12/20 08:13:45;;;;;;;;;;;;;;;3.21;86.31;102053.59;4900427;28;21046;-81
2021/12/20 08:16:17;;;;;;;;;;;;;;;3.18;86.80;102064.19;4918187;28;20294;-80
2021/12/20 08:18:43;;;;;;;;;;;;;;;3.13;86.84;102066.09;4918472;28;20488;-81
2021/12/20 08:21:08;;;;;;;;;;;;;;;3.14;86.87;102057.34;4912034;28;20349;-81
2021/12/20 08:23:33;;;;;;;;;;;;;;;3.20;86.69;102062.34;4900122;28;19903;-81
2021/12/20 08:25:59;;;;;;;;;;;;;;;3.20;86.74;102062.34;4899449;28;20419;-82
2021/12/20 08:28:24;;;;;;;;;;;;;;;3.17;86.67;102055.47;4937632;27;19923;-83
2021/12/20 08:30:49;;;;;;;;;;;;;;;3.28;86.49;102065.53;4925287;27;20882;-82
2021/12/20 08:33:14;;;;;;;;;;;;;;;3.34;86.31;102069.69;4923039;27;19940;-82
2021/12/20 08:35:40;;;;;;;;;;;;;;;3.30;86.08;102063.72;4938324;28;20101;-83
2021/12/20 08:38:06;;;;;;;;;;;;;;;3.35;86.06;102067.00;4921889;28;19908;-83
2021/12/20 08:40:31;;;;;;;;;;;;;;;3.41;86.15;102071.16;4923443;27;20359;-82
2021/12/20 08:42:56;;;;;;;;;;;;;;;3.39;85.95;102073.84;4904590;28;19915;-82
2021/12/20 08:45:21;;;;;;;;;;;;;;;3.53;85.83;102064.63;4910612;27;20403;-83
2021/12/20 08:47:46;;;;;;;;;;;;;;;3.68;84.80;102074.50;4923310;28;19961;-82
2021/12/20 08:50:13;;;;;;;;;;;;;;;3.83;84.56;102074.81;4926949;27;19908;-82
2021/12/20 08:52:38;;;;;;;;;;;;;;;4.07;84.01;102086.94;4935262;27;19915;-82
2021/12/20 08:55:04;;;;;;;;;;;;;;;4.24;83.04;102077.53;4926963;27;19956;-82
2021/12/20 08:57:29;;;;;;;;;;;;;;;4.44;81.96;102080.22;4929806;28;20492;-82
2021/12/20 08:59:54;;;;;;;;;;;;;;;4.64;81.22;102081.97;4925705;27;19912;-82
2021/12/20 09:02:19;;;;;;;;;;;;;;;4.74;80.29;102085.06;4911712;28;20234;-81
2021/12/20 09:04:45;;;;;;;;;;;;;;;4.89;80.39;102090.56;4903945;27;20012;-82
2021/12/20 09:07:15;;;;;;;;;;;;;;;5.04;79.88;102095.13;4930491;27;19923;-81
2021/12/20 09:09:43;;;;;;;;;;;;;;;5.16;78.55;102089.34;4901358;28;20030;-82
2021/12/20 09:12:09;;;;;;;;;;;;;;;5.41;77.65;102093.47;4914956;28;19916;-86
2021/12/20 09:14:34;;;;;;;;;;;;;;;5.55;76.62;102094.63;4938105;27;19903;-83
2021/12/20 09:17:00;;;;;;;;;;;;;;;5.63;76.56;102095.13;4911438;27;19908;-85
2021/12/20 09:19:25;;;;;;;;;;;;;;;5.78;75.90;102097.06;4917495;27;20386;-83
2021/12/20 09:21:51;;;;;;;;;;;;;;;5.90;75.20;102110.53;4946865;27;19907;-83
2021/12/20 09:24:16;;;;;;;;;;;;;;;6.04;74.78;102102.88;4941740;27;19911;-83
2021/12/20 09:26:41;;;;;;;;;;;;;;;6.14;73.42;102104.13;4936534;27;20254;-82
2021/12/20 09:29:07;;;;;;;;;;;;;;;6.35;72.77;102106.63;4919814;27;20423;-82
2021/12/20 09:31:32;;;;;;;;;;;;;;;6.66;71.88;102110.38;4911900;27;19950;-80
2021/12/20 09:33:58;;;;;;;;;;;;;;;7.03;70.53;102111.94;4939836;27;20559;-82
2021/12/20 09:36:28;;;;;;;;;;;;;;;7.39;69.41;102116.19;4930663;27;20017;-86
2021/12/20 09:38:54;;;;;;;;;;;;;;;7.72;67.41;102122.38;4972206;28;19919;-93
2021/12/20 09:41:59;;;;;;;;;;;;;;;8.03;66.42;102113.59;4972305;28;19910;-84
2021/12/20 09:44:05;;;;;;;;;;;;;;;8.34;65.29;102121.56;4976897;28;20350;-84
2021/12/20 09:46:30;;;;;;;;;;;;;;;8.64;64.16;102118.09;4958033;28;19923;-90
2021/12/20 09:48:57;;;;;;;;;;;;;;;8.68;63.53;102112.53;4956010;28;20048;-86
2021/12/20 09:51:23;;;;;;;;;;;;;;;8.54;63.29;102116.00;4943172;28;20418;-87
2021/12/20 09:53:48;;;;;;;;;;;;;;;8.54;63.17;102118.63;4970250;27;19972;-85
2021/12/20 09:56:17;;;;;;;;;;;;;;;8.93;62.40;102114.56;4995570;27;20180;-91
2021/12/20 09:58:50;;;;;;;;;;;;;;;9.39;62.22;102123.28;5013778;27;19936;-87
2021/12/20 10:01:15;;;;;;;;;;;;;;;9.67;60.71;102118.91;4999476;27;19980;-82
2021/12/20 10:03:42;;;;;;;;;;;;;;;10.00;60.16;102115.06;4943669;27;19907;-81
2021/12/20 10:06:07;;;;;;;;;;;;;;;10.14;58.66;102117.66;4936913;27;20628;-83
2021/12/20 10:08:35;;;;;;;;;;;;;;;10.48;57.38;102102.25;4943253;27;20078;-82
2021/12/20 10:11:02;;;;;;;;;;;;;;;10.68;56.44;102113.28;4967719;27;20014;-80
2021/12/20 10:13:34;;;;;;;;;;;;;;;10.62;56.30;102115.41;4988043;27;19916;-81
2021/12/20 10:15:59;;;;;;;;;;;;;;;10.55;55.99;102107.97;4965845;27;19914;-81
2021/12/20 10:18:25;;;;;;;;;;;;;;;10.42;55.37;102114.09;4957538;27;20070;-80
2021/12/20 10:20:51;;;;;;;;;;;;;;;10.50;55.09;102124.16;4950840;28;19908;-82
2021/12/20 10:23:19;;;;;;;;;;;;;;;10.02;55.62;102121.09;4974662;27;20083;-83
2021/12/20 10:25:45;;;;;;;;;;;;;;;9.98;56.06;102125.72;4940999;27;20083;-81
2021/12/20 10:28:11;;;;;;;;;;;;;;;10.00;56.59;102125.63;4938397;27;19947;-81
2021/12/20 10:30:43;;;;;;;;;;;;;;;10.03;56.96;102120.16;4946118;27;20365;-82
2021/12/20 10:33:12;;;;;;;;;;;;;;;10.60;58.05;102116.44;4957796;27;19912;-81
2021/12/20 10:35:39;;;;;;;;;;;;;;;10.60;56.06;102117.31;4948445;27;20371;-83
2021/12/20 10:38:06;;;;;;;;;;;;;;;10.52;56.17;102116.97;4941837;27;19908;-84
2021/12/20 10:40:32;;;;;;;;;;;;;;;10.42;54.95;102115.88;4945288;28;19908;-80
2021/12/20 10:42:57;;;;;;;;;;;;;;;10.12;55.79;102112.47;4949010;27;19916;-79
2021/12/20 10:45:24;;;;;;;;;;;;;;;10.07;56.01;102122.50;4936700;27;19907;-79
2021/12/20 10:47:50;;;;;;;;;;;;;;;10.08;55.80;102111.00;4947638;27;19924;-80
2021/12/20 10:50:24;;;;;;;;;;;;;;;10.44;55.90;102111.34;4950204;27;20343;-80
2021/12/20 10:52:50;;;;;;;;;;;;;;;10.54;55.22;102106.28;4951792;28;20393;-78
2021/12/20 10:55:34;;;;;;;;;;;;;;;10.73;54.61;102105.88;4948604;27;20763;-79
2021/12/20 10:58:14;;;;;;;;;;;;;;;11.26;52.72;102103.97;4942267;28;19948;-80
2021/12/20 11:00:39;;;;;;;;;;;;;;;11.34;51.77;102093.69;4921472;28;20237;-81
2021/12/20 11:03:27;;;;;;;;;;;;;;;11.40;51.41;102099.50;4929599;28;19911;-80
2021/12/20 11:06:13;;;;;;;;;;;;;;;11.03;50.72;102097.63;4936180;28;20479;-80
2021/12/20 11:11:23;;;;;;;;;;;;;;;10.91;50.65;102107.25;4951367;27;20254;-78
2021/12/20 11:13:48;;;;;;;;;;;;;;;11.23;50.60;102100.69;4932993;28;19908;-81
2021/12/20 11:16:27;;;;;;;;;;;;;;;11.77;49.04;102099.50;4934349;27;19908;-82
2021/12/20 11:19:12;;;;;;;;;;;;;;;11.91;48.28;102099.34;4954645;27;19958;-80
2021/12/20 11:21:58;;;;;;;;;;;;;;;11.40;47.09;102099.50;4938902;28;20424;-80
2021/12/20 11:24:38;;;;;;;;;;;;;;;11.61;45.54;102087.34;4928248;27;20125;-80
2021/12/20 11:27:06;;;;;;;;;;;;;;;12.15;46.64;102091.41;4947669;27;19920;-80
2021/12/20 11:29:32;;;;;;;;;;;;;;;11.91;44.59;102086.09;4937440;27;20882;-79
2021/12/20 11:31:57;;;;;;;;;;;;;;;11.49;43.74;102088.22;4942668;27;19919;-80
2021/12/20 11:34:22;;;;;;;;;;;;;;;11.64;42.92;102095.09;4939730;27;20727;-80
2021/12/20 11:36:47;;;;;;;;;;;;;;;11.40;41.32;102088.91;4936498;27;20016;-79
2021/12/20 11:39:13;;;;;;;;;;;;;;;11.45;41.54;102087.63;4951356;27;20151;-79
2021/12/20 11:41:38;;;;;;;;;;;;;;;11.93;41.40;102092.13;4933677;27;20291;-79
2021/12/20 11:44:04;;;;;;;;;;;;;;;12.35;40.40;102081.97;4939036;28;20439;-80
2021/12/20 11:46:50;;;;;;;;;;;;;;;12.71;40.00;102085.44;4938808;27;19924;-80
2021/12/20 11:49:25;;;;;;;;;;;;;;;13.06;38.93;102079.22;4952946;27;20340;-81
2021/12/20 11:52:13;;;;;;;;;;;;;;;13.23;36.66;102075.22;4944883;27;20595;-80
2021/12/20 11:54:39;;;;;;;;;;;;;;;13.29;36.73;102076.56;4948262;27;19971;-79
2021/12/20 11:57:04;;;;;;;;;;;;;;;14.10;35.56;102076.28;4967112;27;20011;-81
2021/12/20 11:59:45;;;;;;;;;;;;;;;14.16;35.16;102074.94;4958659;27;19956;-80
2021/12/20 12:02:21;;;;;;;;;;;;;;;14.15;34.69;102081.22;4928041;27;19919;-80
2021/12/20 12:05:05;;;;;;;;;;;;;;;14.12;35.79;102069.00;4938869;27;20298;-80
2021/12/20 12:07:31;;;;;;;;;;;;;;;13.60;35.27;102071.47;4924770;28;20761;-79
2021/12/20 12:09:58;;;;;;;;;;;;;;;13.15;36.17;102076.81;4917919;28;20025;-80
2021/12/20 12:12:24;;;;;;;;;;;;;;;13.21;35.84;102082.50;4919453;28;19969;-80
2021/12/20 12:14:58;;;;;;;;;;;;;;;13.10;36.19;102073.66;4925761;28;20052;-80
2021/12/20 12:17:23;;;;;;;;;;;;;;;13.03;35.49;102074.16;4941138;27;19916;-81
2021/12/20 12:19:50;;;;;;;;;;;;;;;12.89;36.25;102063.75;4954556;27;19930;-82
2021/12/20 12:22:34;;;;;;;;;;;;;;;12.87;36.86;102069.19;4924863;28;20723;-82
2021/12/20 12:24:59;;;;;;;;;;;;;;;12.50;38.02;102068.50;4939264;28;19975;-82
2021/12/20 12:27:25;;;;;;;;;;;;;;;12.74;35.48;102064.94;4933398;27;20024;-78
2021/12/20 12:30:08;;;;;;;;;;;;;;;12.42;36.68;102070.88;4955734;27;20143;-81
2021/12/20 12:32:34;;;;;;;;;;;;;;;12.23;36.08;102066.13;4956471;27;20359;-80
2021/12/20 12:34:59;;;;;;;;;;;;;;;11.92;37.12;102074.53;4935042;27;20194;-78
2021/12/20 12:37:30;;;;;;;;;;;;;;;11.77;36.02;102076.47;4913772;27;19992;-81
2021/12/20 12:40:14;;;;;;;;;;;;;;;10.78;38.30;102062.22;4913797;28;20653;-80
2021/12/20 12:42:52;;;;;;;;;;;;;;;11.24;37.48;102073.22;4941426;27;19927;-80
2021/12/20 12:45:41;;;;;;;;;;;;;;;11.82;36.32;102073.50;4917084;27;19952;-80
2021/12/20 12:48:24;;;;;;;;;;;;;;;11.89;35.89;102064.16;4949435;27;20408;-82
2021/12/20 12:50:50;;;;;;;;;;;;;;;12.35;34.63;102066.06;4932029;28;20355;-82
2021/12/20 12:53:34;;;;;;;;;;;;;;;12.23;34.66;102056.34;4921208;28;19904;-80
2021/12/20 12:56:19;;;;;;;;;;;;;;;12.25;33.76;102065.03;4945073;27;19920;-81
2021/12/20 12:58:44;;;;;;;;;;;;;;;12.45;34.45;102058.25;4959600;27;19903;-81